RYR147 EDDF-LIMC
Flight info
| Callsign | RYR147 |
|---|---|
| Flight time | N/A |
| Altitude | 31000 |
| Route | ANEKI2L/18 ANEKI Y163 HERBI/N0459F330 Y163 NATOR DCT DITON DCT BASGO Z424 RIXUV |
| Aircraft | B738/M-SDE2E3FGHIRWXY/LB1 |
Departure
| Time | 2026-05-05 20:12 |
|---|---|
| Airport | Frankfurt Main Airport (EDDF) |
Arrival
| Time | N/A |
|---|---|
| Airport | Milan Malpensa International Airport (LIMC) |
| Time | Latitude | Longitude | Altitude | Speed | Heading |
|---|---|---|---|---|---|
| 2026-05-05 19:47 | 50.04393 | 8.56166 | 361 ft | 0 kts | 156° |
| 2026-05-05 20:03 | 50.04400 | 8.56161 | 361 ft | 1 kts | 135° |
| 2026-05-05 20:03 | 50.04406 | 8.56141 | 361 ft | 2 kts | 119° |
| 2026-05-05 20:03 | 50.04415 | 8.56123 | 361 ft | 2 kts | 126° |
| 2026-05-05 20:03 | 50.04423 | 8.56103 | 362 ft | 2 kts | 123° |
| 2026-05-05 20:04 | 50.04433 | 8.56088 | 362 ft | 1 kts | 171° |
| 2026-05-05 20:04 | 50.04445 | 8.56093 | 362 ft | 2 kts | 224° |
| 2026-05-05 20:04 | 50.04451 | 8.56105 | 362 ft | 0 kts | 258° |
| 2026-05-05 20:04 | 50.04452 | 8.56113 | 362 ft | 0 kts | 252° |
| 2026-05-05 20:06 | 50.04451 | 8.56107 | 362 ft | 2 kts | 252° |
| 2026-05-05 20:06 | 50.04431 | 8.56023 | 362 ft | 14 kts | 251° |
| 2026-05-05 20:07 | 50.04358 | 8.55931 | 360 ft | 15 kts | 174° |
| 2026-05-05 20:07 | 50.04239 | 8.55914 | 356 ft | 22 kts | 237° |
| 2026-05-05 20:07 | 50.04187 | 8.55723 | 354 ft | 18 kts | 249° |
| 2026-05-05 20:07 | 50.04142 | 8.55535 | 355 ft | 18 kts | 250° |
| 2026-05-05 20:08 | 50.04095 | 8.55337 | 354 ft | 20 kts | 250° |
| 2026-05-05 20:08 | 50.04042 | 8.55119 | 351 ft | 24 kts | 250° |
| 2026-05-05 20:08 | 50.03976 | 8.54839 | 346 ft | 28 kts | 250° |
| 2026-05-05 20:08 | 50.03902 | 8.54530 | 341 ft | 33 kts | 250° |
| 2026-05-05 20:09 | 50.03811 | 8.54254 | 341 ft | 26 kts | 244° |
| 2026-05-05 20:09 | 50.03748 | 8.54008 | 345 ft | 25 kts | 249° |
| 2026-05-05 20:09 | 50.03680 | 8.53730 | 347 ft | 30 kts | 251° |
| 2026-05-05 20:09 | 50.03605 | 8.53420 | 345 ft | 31 kts | 250° |
| 2026-05-05 20:10 | 50.03525 | 8.53086 | 341 ft | 33 kts | 250° |
| 2026-05-05 20:10 | 50.03445 | 8.52775 | 339 ft | 28 kts | 249° |
| 2026-05-05 20:10 | 50.03362 | 8.52604 | 337 ft | 18 kts | 197° |
| 2026-05-05 20:10 | 50.03300 | 8.52594 | 336 ft | 0 kts | 181° |
| 2026-05-05 20:11 | 50.03289 | 8.52594 | 336 ft | 8 kts | 181° |
| 2026-05-05 20:11 | 50.02906 | 8.52598 | 329 ft | 99 kts | 180° |
| 2026-05-05 20:12 | 50.01940 | 8.52607 | 336 ft | 173 kts | 180° |
| 2026-05-05 20:12 | 50.00645 | 8.52620 | 952 ft | 198 kts | 181° |
| 2026-05-05 20:12 | 49.99313 | 8.52648 | 2025 ft | 195 kts | 181° |
| 2026-05-05 20:12 | 49.97900 | 8.52738 | 2560 ft | 212 kts | 180° |
| 2026-05-05 20:13 | 49.96372 | 8.52856 | 3147 ft | 227 kts | 180° |
| 2026-05-05 20:13 | 49.94785 | 8.52967 | 3791 ft | 234 kts | 180° |
| 2026-05-05 20:13 | 49.93137 | 8.53082 | 4022 ft | 236 kts | 180° |
| 2026-05-05 20:13 | 49.91502 | 8.53198 | 4018 ft | 233 kts | 179° |
| 2026-05-05 20:14 | 49.89901 | 8.53307 | 4019 ft | 233 kts | 181° |
| 2026-05-05 20:14 | 49.88251 | 8.53406 | 4289 ft | 237 kts | 180° |
| 2026-05-05 20:14 | 49.86603 | 8.53530 | 4724 ft | 233 kts | 180° |
| 2026-05-05 20:14 | 49.84953 | 8.53648 | 5425 ft | 241 kts | 180° |
| 2026-05-05 20:15 | 49.83342 | 8.53760 | 6441 ft | 234 kts | 181° |
| 2026-05-05 20:15 | 49.81704 | 8.53872 | 7228 ft | 238 kts | 181° |
| 2026-05-05 20:15 | 49.80046 | 8.53981 | 7973 ft | 242 kts | 181° |
| 2026-05-05 20:15 | 49.78384 | 8.54064 | 8724 ft | 244 kts | 184° |
| 2026-05-05 20:16 | 49.76694 | 8.53950 | 9452 ft | 245 kts | 188° |
| 2026-05-05 20:16 | 49.75004 | 8.53712 | 10183 ft | 247 kts | 189° |
| 2026-05-05 20:16 | 49.73296 | 8.53453 | 10903 ft | 250 kts | 189° |
| 2026-05-05 20:16 | 49.71558 | 8.53205 | 11596 ft | 253 kts | 188° |
| 2026-05-05 20:17 | 49.69796 | 8.52976 | 12301 ft | 255 kts | 188° |
| 2026-05-05 20:17 | 49.68035 | 8.52770 | 12979 ft | 257 kts | 187° |
| 2026-05-05 20:17 | 49.66269 | 8.52562 | 13631 ft | 259 kts | 187° |
| 2026-05-05 20:17 | 49.64470 | 8.52335 | 14268 ft | 261 kts | 187° |
| 2026-05-05 20:18 | 49.62642 | 8.52095 | 14912 ft | 263 kts | 187° |
| 2026-05-05 20:18 | 49.60836 | 8.51857 | 15535 ft | 265 kts | 187° |
| 2026-05-05 20:18 | 49.58991 | 8.51613 | 16117 ft | 267 kts | 187° |
| 2026-05-05 20:18 | 49.57153 | 8.51371 | 16677 ft | 270 kts | 187° |
| 2026-05-05 20:19 | 49.55271 | 8.51125 | 17248 ft | 271 kts | 187° |
| 2026-05-05 20:19 | 49.53386 | 8.50877 | 17797 ft | 274 kts | 187° |
| 2026-05-05 20:19 | 49.51480 | 8.50626 | 18347 ft | 277 kts | 186° |
| 2026-05-05 20:19 | 49.49569 | 8.50377 | 18894 ft | 279 kts | 186° |
| 2026-05-05 20:20 | 49.47628 | 8.50124 | 19456 ft | 282 kts | 186° |
| 2026-05-05 20:20 | 49.45667 | 8.49868 | 19994 ft | 284 kts | 186° |
| 2026-05-05 20:20 | 49.43707 | 8.49613 | 20538 ft | 286 kts | 185° |
| 2026-05-05 20:20 | 49.41728 | 8.49354 | 21085 ft | 287 kts | 185° |
| 2026-05-05 20:21 | 49.39735 | 8.49094 | 21590 ft | 290 kts | 185° |
| 2026-05-05 20:21 | 49.37714 | 8.48830 | 22126 ft | 292 kts | 185° |
| 2026-05-05 20:21 | 49.35704 | 8.48568 | 22613 ft | 294 kts | 185° |
| 2026-05-05 20:21 | 49.33665 | 8.48303 | 23111 ft | 295 kts | 184° |
| 2026-05-05 20:22 | 49.31600 | 8.48034 | 23554 ft | 298 kts | 184° |
| 2026-05-05 20:22 | 49.29546 | 8.47768 | 24073 ft | 298 kts | 184° |
| 2026-05-05 20:22 | 49.27493 | 8.47502 | 24512 ft | 300 kts | 184° |
| 2026-05-05 20:22 | 49.25381 | 8.47228 | 24789 ft | 308 kts | 184° |
| 2026-05-05 20:23 | 49.23201 | 8.46946 | 24916 ft | 320 kts | 184° |
| 2026-05-05 20:23 | 49.20940 | 8.46652 | 25030 ft | 332 kts | 184° |
| 2026-05-05 20:23 | 49.18616 | 8.46346 | 25297 ft | 340 kts | 184° |
| 2026-05-05 20:23 | 49.16285 | 8.46039 | 25917 ft | 336 kts | 184° |
| 2026-05-05 20:24 | 49.13943 | 8.45733 | 26506 ft | 334 kts | 184° |
| 2026-05-05 20:24 | 49.11645 | 8.45433 | 27023 ft | 332 kts | 184° |
| 2026-05-05 20:24 | 49.09361 | 8.45138 | 27473 ft | 333 kts | 184° |
| 2026-05-05 20:24 | 49.07079 | 8.44832 | 27886 ft | 334 kts | 185° |
| 2026-05-05 20:25 | 49.04768 | 8.44324 | 28320 ft | 334 kts | 189° |
| 2026-05-05 20:25 | 49.02497 | 8.43589 | 28786 ft | 333 kts | 192° |
| 2026-05-05 20:25 | 49.00267 | 8.42776 | 29233 ft | 332 kts | 192° |
| 2026-05-05 20:25 | 48.98013 | 8.41943 | 29638 ft | 331 kts | 192° |
| 2026-05-05 20:26 | 48.95787 | 8.41131 | 30038 ft | 331 kts | 192° |
| 2026-05-05 20:26 | 48.93548 | 8.40329 | 30484 ft | 328 kts | 192° |
| 2026-05-05 20:26 | 48.91337 | 8.39546 | 30817 ft | 328 kts | 192° |
| 2026-05-05 20:26 | 48.89102 | 8.38763 | 31135 ft | 327 kts | 192° |
| 2026-05-05 20:27 | 48.86868 | 8.37985 | 31418 ft | 327 kts | 192° |
| 2026-05-05 20:27 | 48.84639 | 8.37211 | 31710 ft | 327 kts | 192° |
| 2026-05-05 20:27 | 48.82411 | 8.36440 | 31988 ft | 326 kts | 192° |
| 2026-05-05 20:27 | 48.80176 | 8.35667 | 32264 ft | 325 kts | 192° |
| 2026-05-05 20:28 | 48.77979 | 8.34903 | 32499 ft | 326 kts | 192° |
| 2026-05-05 20:28 | 48.73499 | 8.33275 | 32735 ft | 335 kts | 192° |
| 2026-05-05 20:29 | 48.69176 | 8.31683 | 32844 ft | 338 kts | 192° |
| 2026-05-05 20:29 | 48.64651 | 8.30027 | 32849 ft | 334 kts | 192° |
| 2026-05-05 20:30 | 48.60128 | 8.28381 | 32844 ft | 334 kts | 193° |
| 2026-05-05 20:30 | 48.55608 | 8.26739 | 32850 ft | 333 kts | 193° |
| 2026-05-05 20:31 | 48.51083 | 8.25164 | 32848 ft | 333 kts | 190° |
| 2026-05-05 20:31 | 48.46476 | 8.24907 | 32856 ft | 333 kts | 175° |
| 2026-05-05 20:32 | 48.41884 | 8.25960 | 32857 ft | 334 kts | 172° |
| 2026-05-05 20:32 | 48.37315 | 8.26994 | 32860 ft | 333 kts | 177° |
| 2026-05-05 20:33 | 48.32704 | 8.27206 | 32867 ft | 332 kts | 180° |
| 2026-05-05 20:33 | 48.28073 | 8.27351 | 32863 ft | 333 kts | 180° |
| 2026-05-05 20:34 | 48.23460 | 8.27581 | 32871 ft | 332 kts | 179° |
| 2026-05-05 20:34 | 48.18836 | 8.27854 | 32873 ft | 333 kts | 179° |
| 2026-05-05 20:35 | 48.14236 | 8.28139 | 32878 ft | 332 kts | 180° |
| 2026-05-05 20:35 | 48.09593 | 8.28431 | 32877 ft | 333 kts | 180° |
| 2026-05-05 20:36 | 48.05011 | 8.28719 | 32873 ft | 331 kts | 180° |
| 2026-05-05 20:36 | 48.00402 | 8.29007 | 32883 ft | 332 kts | 180° |
| 2026-05-05 20:37 | 47.95778 | 8.29296 | 32882 ft | 333 kts | 180° |
| 2026-05-05 20:37 | 47.91185 | 8.29584 | 32884 ft | 331 kts | 180° |
| 2026-05-05 20:38 | 47.86565 | 8.29871 | 32884 ft | 332 kts | 180° |
| 2026-05-05 20:38 | 47.81955 | 8.30156 | 32888 ft | 331 kts | 180° |
| 2026-05-05 20:39 | 47.77372 | 8.30440 | 32881 ft | 331 kts | 181° |
| 2026-05-05 20:39 | 47.72765 | 8.30726 | 32895 ft | 338 kts | 181° |
| 2026-05-05 20:40 | 47.67959 | 8.31017 | 32892 ft | 352 kts | 181° |
| 2026-05-05 20:40 | 47.62969 | 8.31322 | 32894 ft | 366 kts | 181° |
| 2026-05-05 20:41 | 47.57801 | 8.31638 | 32895 ft | 377 kts | 181° |
| 2026-05-05 20:41 | 47.52594 | 8.31964 | 32894 ft | 374 kts | 181° |
| 2026-05-05 20:42 | 47.47384 | 8.32289 | 32893 ft | 375 kts | 181° |
| 2026-05-05 20:42 | 47.42200 | 8.32608 | 32894 ft | 374 kts | 181° |
| 2026-05-05 20:43 | 47.37030 | 8.32926 | 32895 ft | 373 kts | 181° |
| 2026-05-05 20:43 | 47.31824 | 8.33242 | 32896 ft | 373 kts | 181° |
| 2026-05-05 20:44 | 47.26648 | 8.33693 | 32900 ft | 379 kts | 179° |
| 2026-05-05 20:44 | 47.21396 | 8.34447 | 32899 ft | 380 kts | 178° |
| 2026-05-05 20:45 | 47.13512 | 8.35605 | 32912 ft | 379 kts | 179° |
| 2026-05-05 20:45 | 47.08279 | 8.36336 | 32916 ft | 379 kts | 179° |
| 2026-05-05 20:46 | 47.03054 | 8.37055 | 32913 ft | 379 kts | 179° |
| 2026-05-05 20:46 | 46.97799 | 8.37770 | 32919 ft | 378 kts | 179° |
| 2026-05-05 20:47 | 46.92532 | 8.38485 | 32919 ft | 378 kts | 180° |
| 2026-05-05 20:47 | 46.87351 | 8.39188 | 32923 ft | 375 kts | 180° |
| 2026-05-05 20:48 | 46.82127 | 8.39892 | 32920 ft | 376 kts | 180° |
| 2026-05-05 20:48 | 46.76955 | 8.40593 | 32939 ft | 374 kts | 181° |
| 2026-05-05 20:49 | 46.71780 | 8.41289 | 32950 ft | 373 kts | 181° |
| 2026-05-05 20:49 | 46.66642 | 8.41983 | 32954 ft | 373 kts | 180° |
| 2026-05-05 20:50 | 46.61486 | 8.42675 | 32952 ft | 372 kts | 181° |
| 2026-05-05 20:50 | 46.56330 | 8.43366 | 32956 ft | 370 kts | 181° |
| 2026-05-05 20:51 | 46.51212 | 8.44051 | 32971 ft | 369 kts | 181° |
| 2026-05-05 20:51 | 46.46065 | 8.44734 | 32962 ft | 372 kts | 181° |
| 2026-05-05 20:52 | 46.43473 | 8.45079 | 32789 ft | 375 kts | 181° |
| 2026-05-05 20:52 | 46.40844 | 8.45424 | 32064 ft | 381 kts | 181° |
| 2026-05-05 20:52 | 46.38168 | 8.45772 | 31050 ft | 394 kts | 181° |
| 2026-05-05 20:52 | 46.35442 | 8.46121 | 29768 ft | 410 kts | 180° |
| 2026-05-05 20:53 | 46.32565 | 8.46490 | 28392 ft | 424 kts | 180° |
| 2026-05-05 20:53 | 46.29606 | 8.46878 | 27736 ft | 420 kts | 179° |
| 2026-05-05 20:53 | 46.26720 | 8.47269 | 27164 ft | 416 kts | 179° |
| 2026-05-05 20:53 | 46.23855 | 8.47672 | 26478 ft | 414 kts | 179° |
| 2026-05-05 20:54 | 46.20995 | 8.48088 | 25887 ft | 409 kts | 178° |
| 2026-05-05 20:54 | 46.18172 | 8.48505 | 25282 ft | 406 kts | 178° |
| 2026-05-05 20:54 | 46.15408 | 8.48913 | 24602 ft | 404 kts | 177° |
| 2026-05-05 20:54 | 46.12608 | 8.49442 | 24017 ft | 401 kts | 174° |
| 2026-05-05 20:55 | 46.09947 | 8.50286 | 24104 ft | 395 kts | 168° |
| 2026-05-05 20:55 | 46.07280 | 8.51464 | 24164 ft | 409 kts | 165° |
| 2026-05-05 20:55 | 46.04602 | 8.52836 | 24722 ft | 411 kts | 164° |
| 2026-05-05 20:55 | 46.01918 | 8.54292 | 25334 ft | 413 kts | 164° |
| 2026-05-05 20:56 | 45.99199 | 8.55782 | 25726 ft | 418 kts | 164° |
| 2026-05-05 20:56 | 45.96512 | 8.57255 | 26341 ft | 417 kts | 165° |
| 2026-05-05 20:56 | 45.93795 | 8.58741 | 27088 ft | 414 kts | 165° |
| 2026-05-05 20:56 | 45.91138 | 8.60363 | 27691 ft | 416 kts | 160° |
| 2026-05-05 20:57 | 45.88600 | 8.62426 | 28208 ft | 423 kts | 154° |
| 2026-05-05 20:57 | 45.86201 | 8.64856 | 28786 ft | 426 kts | 150° |
| 2026-05-05 20:57 | 45.83861 | 8.67488 | 29381 ft | 425 kts | 150° |
| 2026-05-05 20:57 | 45.81586 | 8.70155 | 29771 ft | 428 kts | 149° |
| 2026-05-05 20:58 | 45.79269 | 8.72902 | 30110 ft | 432 kts | 149° |
| 2026-05-05 20:58 | 45.76967 | 8.75618 | 30596 ft | 427 kts | 152° |
| 2026-05-05 20:58 | 45.74574 | 8.78016 | 31075 ft | 418 kts | 157° |
| 2026-05-05 20:58 | 45.72074 | 8.80101 | 31729 ft | 406 kts | 162° |
| 2026-05-05 20:59 | 45.69519 | 8.81790 | 32125 ft | 397 kts | 168° |
| 2026-05-05 20:59 | 45.66942 | 8.82977 | 32499 ft | 389 kts | 175° |
| 2026-05-05 20:59 | 45.64276 | 8.83693 | 32849 ft | 381 kts | 182° |
| 2026-05-05 20:59 | 45.61686 | 8.83552 | 32959 ft | 366 kts | 200° |
| 2026-05-05 21:00 | 45.59460 | 8.82004 | 32968 ft | 351 kts | 222° |
| 2026-05-05 21:00 | 45.57992 | 8.79274 | 32974 ft | 350 kts | 244° |
| 2026-05-05 21:00 | 45.57395 | 8.75880 | 32979 ft | 361 kts | 259° |
| 2026-05-05 21:00 | 45.57396 | 8.72273 | 32979 ft | 372 kts | 268° |
| 2026-05-05 21:01 | 45.58168 | 8.64912 | 32978 ft | 375 kts | 272° |
| 2026-05-05 21:01 | 45.59032 | 8.57616 | 32983 ft | 379 kts | 277° |
| 2026-05-05 21:02 | 45.60135 | 8.54138 | 32978 ft | 401 kts | 295° |
| 2026-05-05 21:02 | 45.62128 | 8.51215 | 32984 ft | 426 kts | 314° |
| 2026-05-05 21:02 | 45.64778 | 8.49205 | 32984 ft | 444 kts | 331° |
| 2026-05-05 21:02 | 45.67832 | 8.48265 | 32434 ft | 465 kts | 349° |
| 2026-05-05 21:03 | 45.71081 | 8.48892 | 31557 ft | 490 kts | 14° |
| 2026-05-05 21:03 | 45.74165 | 8.51064 | 30891 ft | 499 kts | 32° |
| 2026-05-05 21:03 | 45.76765 | 8.54393 | 30322 ft | 499 kts | 50° |
| 2026-05-05 21:03 | 45.78594 | 8.58505 | 30027 ft | 486 kts | 69° |
| 2026-05-05 21:04 | 45.80453 | 8.67777 | 29983 ft | 490 kts | 82° |
| 2026-05-05 21:04 | 45.81754 | 8.77352 | 29982 ft | 489 kts | 83° |
| 2026-05-05 21:05 | 45.83001 | 8.86945 | 29986 ft | 489 kts | 84° |
| 2026-05-05 21:05 | 45.84237 | 8.96492 | 29980 ft | 490 kts | 83° |
| 2026-05-05 21:06 | 45.85344 | 9.06229 | 29984 ft | 504 kts | 86° |
| 2026-05-05 21:06 | 45.86210 | 9.16346 | 29983 ft | 518 kts | 87° |
| 2026-05-05 21:07 | 45.87031 | 9.26538 | 29984 ft | 515 kts | 87° |
| 2026-05-05 21:07 | 45.87535 | 9.36745 | 29991 ft | 510 kts | 95° |
| 2026-05-05 21:08 | 45.86893 | 9.46715 | 29991 ft | 496 kts | 103° |
| 2026-05-05 21:08 | 45.86395 | 9.51506 | 29986 ft | 476 kts | 107° |
| 2026-05-05 21:08 | 45.85503 | 9.55952 | 29989 ft | 448 kts | 120° |
| 2026-05-05 21:09 | 45.84069 | 9.59681 | 29990 ft | 420 kts | 131° |
| 2026-05-05 21:09 | 45.82348 | 9.62963 | 29989 ft | 399 kts | 137° |
| 2026-05-05 21:09 | 45.80591 | 9.65944 | 29698 ft | 391 kts | 139° |
| 2026-05-05 21:09 | 45.78811 | 9.68901 | 29072 ft | 393 kts | 139° |
| 2026-05-05 21:10 | 45.77066 | 9.71861 | 28720 ft | 388 kts | 138° |
| 2026-05-05 21:10 | 45.75372 | 9.74831 | 28248 ft | 387 kts | 137° |
| 2026-05-05 21:10 | 45.73706 | 9.77829 | 27714 ft | 386 kts | 136° |
| 2026-05-05 21:10 | 45.72086 | 9.80819 | 27400 ft | 380 kts | 135° |
| 2026-05-05 21:11 | 45.70486 | 9.83814 | 26924 ft | 378 kts | 135° |
| 2026-05-05 21:11 | 45.68863 | 9.86731 | 26433 ft | 372 kts | 140° |
| 2026-05-05 21:11 | 45.67030 | 9.89209 | 26026 ft | 359 kts | 150° |
| 2026-05-05 21:11 | 45.64952 | 9.91069 | 25528 ft | 348 kts | 162° |
| 2026-05-05 21:12 | 45.62714 | 9.92210 | 25115 ft | 335 kts | 173° |
| 2026-05-05 21:12 | 45.60465 | 9.92634 | 24996 ft | 320 kts | 183° |
| 2026-05-05 21:12 | 45.58244 | 9.92619 | 24989 ft | 322 kts | 188° |
| 2026-05-05 21:12 | 45.56001 | 9.92197 | 24980 ft | 323 kts | 198° |
| 2026-05-05 21:13 | 45.53933 | 9.91123 | 24984 ft | 317 kts | 209° |
| 2026-05-05 21:13 | 45.52068 | 9.89507 | 24979 ft | 314 kts | 217° |
| 2026-05-05 21:13 | 45.50361 | 9.87550 | 24983 ft | 315 kts | 222° |
| 2026-05-05 21:13 | 45.48873 | 9.85262 | 24982 ft | 316 kts | 232° |
| 2026-05-05 21:14 | 45.47750 | 9.82570 | 24985 ft | 317 kts | 242° |
| 2026-05-05 21:14 | 45.46974 | 9.79665 | 24980 ft | 320 kts | 249° |
| 2026-05-05 21:14 | 45.46443 | 9.76547 | 24982 ft | 324 kts | 257° |
| 2026-05-05 21:14 | 45.46339 | 9.73336 | 24988 ft | 331 kts | 268° |
| 2026-05-05 21:15 | 45.46716 | 9.70060 | 24987 ft | 338 kts | 278° |
| 2026-05-05 21:15 | 45.47432 | 9.66901 | 24986 ft | 342 kts | 285° |
| 2026-05-05 21:15 | 45.48534 | 9.63825 | 24991 ft | 353 kts | 297° |
| 2026-05-05 21:15 | 45.50127 | 9.61134 | 24963 ft | 360 kts | 309° |
| 2026-05-05 21:16 | 45.52095 | 9.58897 | 24599 ft | 364 kts | 319° |
| 2026-05-05 21:16 | 45.54295 | 9.57106 | 24077 ft | 372 kts | 330° |
| 2026-05-05 21:16 | 45.56814 | 9.56015 | 23997 ft | 379 kts | 345° |
| 2026-05-05 21:16 | 45.59448 | 9.55724 | 23985 ft | 391 kts | 356° |
| 2026-05-05 21:17 | 45.62198 | 9.56091 | 23985 ft | 397 kts | 8° |
| 2026-05-05 21:17 | 45.64836 | 9.57327 | 23985 ft | 401 kts | 23° |
| 2026-05-05 21:17 | 45.67297 | 9.59122 | 23990 ft | 400 kts | 28° |
| 2026-05-05 21:17 | 45.69720 | 9.61110 | 23990 ft | 400 kts | 28° |
| 2026-05-05 21:18 | 45.72251 | 9.62787 | 23983 ft | 399 kts | 15° |
| 2026-05-05 21:18 | 45.74929 | 9.63412 | 23983 ft | 391 kts | 355° |
| 2026-05-05 21:18 | 45.77587 | 9.62856 | 23995 ft | 380 kts | 338° |
| 2026-05-05 21:18 | 45.80000 | 9.61473 | 23999 ft | 374 kts | 326° |
| 2026-05-05 21:19 | 45.82237 | 9.59601 | 24001 ft | 369 kts | 321° |
| 2026-05-05 21:19 | 45.84266 | 9.57429 | 24004 ft | 360 kts | 309° |
| 2026-05-05 21:19 | 45.85820 | 9.54695 | 24004 ft | 348 kts | 294° |
| 2026-05-05 21:19 | 45.86848 | 9.51614 | 24010 ft | 340 kts | 283° |
| 2026-05-05 21:20 | 45.87517 | 9.48417 | 24003 ft | 334 kts | 277° |
| 2026-05-05 21:20 | 45.87906 | 9.45197 | 23997 ft | 328 kts | 268° |
| 2026-05-05 21:20 | 45.87799 | 9.41958 | 23994 ft | 321 kts | 256° |
| 2026-05-05 21:20 | 45.87255 | 9.38915 | 24003 ft | 317 kts | 248° |
| 2026-05-05 21:21 | 45.86438 | 9.35961 | 23999 ft | 315 kts | 242° |
| 2026-05-05 21:21 | 45.85343 | 9.33279 | 24006 ft | 311 kts | 231° |
| 2026-05-05 21:21 | 45.83885 | 9.31007 | 23996 ft | 310 kts | 221° |
| 2026-05-05 21:21 | 45.82189 | 9.29106 | 23996 ft | 311 kts | 215° |
| 2026-05-05 21:22 | 45.80344 | 9.27509 | 23994 ft | 312 kts | 207° |
| 2026-05-05 21:22 | 45.78307 | 9.26445 | 23989 ft | 313 kts | 196° |
| 2026-05-05 21:22 | 45.76138 | 9.25962 | 23986 ft | 318 kts | 188° |
| 2026-05-05 21:22 | 45.73951 | 9.25902 | 23982 ft | 321 kts | 182° |
| 2026-05-05 21:23 | 45.71715 | 9.26351 | 23987 ft | 326 kts | 171° |
| 2026-05-05 21:23 | 45.69582 | 9.27474 | 23986 ft | 334 kts | 160° |
| 2026-05-05 21:23 | 45.67562 | 9.29165 | 23989 ft | 340 kts | 152° |
| 2026-05-05 21:23 | 45.65694 | 9.31286 | 23981 ft | 346 kts | 143° |
| 2026-05-05 21:24 | 45.64119 | 9.33933 | 23979 ft | 353 kts | 134° |
| 2026-05-05 21:24 | 45.62674 | 9.36779 | 23974 ft | 354 kts | 133° |
| 2026-05-05 21:24 | 45.61226 | 9.39637 | 23977 ft | 357 kts | 133° |
| 2026-05-05 21:24 | 45.59767 | 9.42484 | 23968 ft | 356 kts | 133° |
| 2026-05-05 21:25 | 45.58314 | 9.45293 | 23981 ft | 354 kts | 133° |
| 2026-05-05 21:25 | 45.56849 | 9.48118 | 23977 ft | 356 kts | 133° |
| 2026-05-05 21:25 | 45.55497 | 9.51113 | 23974 ft | 363 kts | 124° |
| 2026-05-05 21:25 | 45.54563 | 9.54484 | 23970 ft | 373 kts | 110° |
| 2026-05-05 21:26 | 45.54225 | 9.58196 | 23972 ft | 384 kts | 96° |
| 2026-05-05 21:26 | 45.54400 | 9.61999 | 23973 ft | 389 kts | 86° |
| 2026-05-05 21:26 | 45.54989 | 9.65791 | 23977 ft | 394 kts | 75° |
| 2026-05-05 21:26 | 45.56204 | 9.69307 | 23969 ft | 401 kts | 58° |
| 2026-05-05 21:27 | 45.58028 | 9.72311 | 23973 ft | 402 kts | 43° |
| 2026-05-05 21:27 | 45.60194 | 9.74770 | 23975 ft | 401 kts | 34° |
| 2026-05-05 21:27 | 45.62622 | 9.76730 | 23991 ft | 398 kts | 22° |
| 2026-05-05 21:27 | 45.65223 | 9.77998 | 23643 ft | 392 kts | 11° |
| 2026-05-05 21:28 | 45.67885 | 9.78536 | 23140 ft | 387 kts | 358° |
| 2026-05-05 21:28 | 45.70489 | 9.78110 | 22992 ft | 369 kts | 337° |
| 2026-05-05 21:28 | 45.72770 | 9.76582 | 22988 ft | 361 kts | 320° |
| 2026-05-05 21:28 | 45.74746 | 9.74403 | 22976 ft | 358 kts | 310° |
| 2026-05-05 21:29 | 45.76492 | 9.71888 | 22980 ft | 353 kts | 306° |
| 2026-05-05 21:29 | 45.78106 | 9.69265 | 22975 ft | 349 kts | 302° |
| 2026-05-05 21:29 | 45.79597 | 9.66565 | 22984 ft | 348 kts | 300° |
| 2026-05-05 21:29 | 45.81047 | 9.63781 | 22983 ft | 347 kts | 299° |
| 2026-05-05 21:30 | 45.82459 | 9.61022 | 22987 ft | 346 kts | 299° |
| 2026-05-05 21:30 | 45.83879 | 9.58249 | 22985 ft | 348 kts | 299° |
| 2026-05-05 21:30 | 45.85310 | 9.55455 | 22992 ft | 348 kts | 298° |
| 2026-05-05 21:30 | 45.86557 | 9.52564 | 22990 ft | 340 kts | 289° |
| 2026-05-05 21:31 | 45.87350 | 9.49404 | 22986 ft | 331 kts | 276° |
| 2026-05-05 21:31 | 45.87621 | 9.46187 | 22987 ft | 325 kts | 266° |
| 2026-05-05 21:31 | 45.87563 | 9.42985 | 22977 ft | 319 kts | 259° |
| 2026-05-05 21:31 | 45.87120 | 9.39904 | 22981 ft | 315 kts | 248° |
| 2026-05-05 21:32 | 45.86205 | 9.37068 | 22984 ft | 311 kts | 237° |
| 2026-05-05 21:32 | 45.85012 | 9.34562 | 22983 ft | 304 kts | 230° |
| 2026-05-05 21:32 | 45.83611 | 9.32339 | 22975 ft | 294 kts | 221° |
| 2026-05-05 21:32 | 45.81979 | 9.30656 | 22976 ft | 293 kts | 210° |
| 2026-05-05 21:33 | 45.80129 | 9.29395 | 22977 ft | 297 kts | 203° |
| 2026-05-05 21:33 | 45.78137 | 9.28465 | 22976 ft | 298 kts | 195° |
| 2026-05-05 21:33 | 45.76092 | 9.28112 | 22976 ft | 303 kts | 184° |
| 2026-05-05 21:33 | 45.73959 | 9.28364 | 22972 ft | 308 kts | 175° |
| 2026-05-05 21:34 | 45.71877 | 9.29049 | 22972 ft | 310 kts | 168° |
| 2026-05-05 21:34 | 45.69878 | 9.30264 | 22975 ft | 318 kts | 156° |
| 2026-05-05 21:34 | 45.68068 | 9.32107 | 22806 ft | 322 kts | 146° |
| 2026-05-05 21:34 | 45.66483 | 9.34422 | 22324 ft | 329 kts | 136° |
| 2026-05-05 21:35 | 45.65098 | 9.36967 | 22002 ft | 327 kts | 133° |
| 2026-05-05 21:35 | 45.63747 | 9.39603 | 21978 ft | 327 kts | 133° |
| 2026-05-05 21:35 | 45.62405 | 9.42217 | 21974 ft | 333 kts | 133° |
| 2026-05-05 21:35 | 45.61036 | 9.44867 | 21978 ft | 333 kts | 133° |
| 2026-05-05 21:36 | 45.59666 | 9.47512 | 21978 ft | 331 kts | 133° |
| 2026-05-05 21:36 | 45.58321 | 9.50223 | 21980 ft | 334 kts | 129° |
| 2026-05-05 21:36 | 45.57268 | 9.53184 | 21978 ft | 344 kts | 116° |
| 2026-05-05 21:36 | 45.56721 | 9.56528 | 21978 ft | 353 kts | 101° |
| 2026-05-05 21:37 | 45.56692 | 9.60090 | 21977 ft | 360 kts | 90° |
| 2026-05-05 21:37 | 45.57060 | 9.63632 | 21980 ft | 366 kts | 79° |
| 2026-05-05 21:37 | 45.57980 | 9.67019 | 21981 ft | 372 kts | 64° |
| 2026-05-05 21:37 | 45.59483 | 9.69971 | 21981 ft | 374 kts | 49° |
| 2026-05-05 21:38 | 45.61399 | 9.72545 | 21977 ft | 376 kts | 39° |
| 2026-05-05 21:38 | 45.63580 | 9.74571 | 21984 ft | 374 kts | 23° |
| 2026-05-05 21:38 | 45.66013 | 9.75682 | 21980 ft | 370 kts | 6° |
| 2026-05-05 21:38 | 45.68576 | 9.75954 | 21984 ft | 364 kts | 355° |
| 2026-05-05 21:39 | 45.71082 | 9.75693 | 21987 ft | 359 kts | 345° |
| 2026-05-05 21:39 | 45.73442 | 9.74681 | 21990 ft | 351 kts | 329° |
| 2026-05-05 21:39 | 45.75492 | 9.72877 | 21986 ft | 342 kts | 315° |
| 2026-05-05 21:39 | 45.77239 | 9.70640 | 21988 ft | 334 kts | 307° |
| 2026-05-05 21:40 | 45.78758 | 9.68182 | 21983 ft | 331 kts | 302° |
| 2026-05-05 21:40 | 45.80155 | 9.65572 | 21988 ft | 329 kts | 300° |
| 2026-05-05 21:40 | 45.81505 | 9.62923 | 21987 ft | 329 kts | 299° |
| 2026-05-05 21:40 | 45.82837 | 9.60289 | 21992 ft | 331 kts | 299° |
| 2026-05-05 21:41 | 45.84201 | 9.57613 | 21989 ft | 329 kts | 299° |
| 2026-05-05 21:41 | 45.85548 | 9.54959 | 22003 ft | 329 kts | 297° |
| 2026-05-05 21:41 | 45.86658 | 9.52168 | 22003 ft | 321 kts | 287° |
| 2026-05-05 21:41 | 45.87266 | 9.49170 | 22000 ft | 313 kts | 272° |
| 2026-05-05 21:42 | 45.87386 | 9.46110 | 22005 ft | 305 kts | 263° |
| 2026-05-05 21:42 | 45.87203 | 9.43103 | 21998 ft | 302 kts | 256° |
| 2026-05-05 21:42 | 45.86597 | 9.40242 | 21994 ft | 297 kts | 242° |
| 2026-05-05 21:42 | 45.85557 | 9.37717 | 21999 ft | 295 kts | 232° |
| 2026-05-05 21:43 | 45.84270 | 9.35461 | 22000 ft | 292 kts | 226° |
| 2026-05-05 21:43 | 45.82757 | 9.33554 | 21997 ft | 293 kts | 214° |
| 2026-05-05 21:43 | 45.80949 | 9.32202 | 21991 ft | 293 kts | 202° |
| 2026-05-05 21:43 | 45.78983 | 9.31359 | 21989 ft | 294 kts | 195° |
| 2026-05-05 21:44 | 45.76964 | 9.30918 | 21997 ft | 298 kts | 186° |
| 2026-05-05 21:44 | 45.74863 | 9.31131 | 21987 ft | 305 kts | 173° |
| 2026-05-05 21:44 | 45.72813 | 9.32043 | 21983 ft | 311 kts | 163° |
| 2026-05-05 21:44 | 45.70889 | 9.33427 | 21990 ft | 314 kts | 155° |
| 2026-05-05 21:45 | 45.69134 | 9.35348 | 21990 ft | 323 kts | 141° |
| 2026-05-05 21:45 | 45.67708 | 9.37871 | 21992 ft | 332 kts | 132° |
| 2026-05-05 21:45 | 45.66373 | 9.40554 | 21984 ft | 332 kts | 133° |
| 2026-05-05 21:45 | 45.65021 | 9.43200 | 21978 ft | 330 kts | 133° |
| 2026-05-05 21:46 | 45.63654 | 9.45824 | 21979 ft | 332 kts | 133° |
| 2026-05-05 21:46 | 45.62273 | 9.48457 | 21979 ft | 331 kts | 134° |
| 2026-05-05 21:46 | 45.60936 | 9.51162 | 21981 ft | 335 kts | 129° |
| 2026-05-05 21:46 | 45.59917 | 9.54151 | 21976 ft | 344 kts | 114° |
| 2026-05-05 21:47 | 45.59496 | 9.57536 | 21978 ft | 355 kts | 97° |
| 2026-05-05 21:47 | 45.59677 | 9.61106 | 21975 ft | 364 kts | 85° |
| 2026-05-05 21:47 | 45.60297 | 9.64620 | 21975 ft | 369 kts | 73° |
| 2026-05-05 21:47 | 45.61507 | 9.67875 | 21975 ft | 371 kts | 56° |
| 2026-05-05 21:48 | 45.63213 | 9.70587 | 21677 ft | 369 kts | 43° |
| 2026-05-05 21:48 | 45.65266 | 9.72758 | 21193 ft | 370 kts | 29° |
| 2026-05-05 21:48 | 45.67606 | 9.74146 | 20989 ft | 359 kts | 9° |
| 2026-05-05 21:48 | 45.70069 | 9.74374 | 20987 ft | 353 kts | 350° |
| 2026-05-05 21:49 | 45.72436 | 9.73732 | 20982 ft | 344 kts | 338° |
| 2026-05-05 21:49 | 45.74691 | 9.72600 | 20576 ft | 341 kts | 332° |
| 2026-05-05 21:49 | 45.76775 | 9.71073 | 20113 ft | 334 kts | 320° |
| 2026-05-05 21:49 | 45.78537 | 9.68993 | 19720 ft | 323 kts | 307° |
| 2026-05-05 21:50 | 45.79922 | 9.66554 | 19360 ft | 315 kts | 300° |
| 2026-05-05 21:50 | 45.81162 | 9.63986 | 18969 ft | 312 kts | 298° |
| 2026-05-05 21:50 | 45.82363 | 9.61427 | 18619 ft | 308 kts | 298° |
| 2026-05-05 21:50 | 45.83569 | 9.58906 | 18210 ft | 308 kts | 300° |
| 2026-05-05 21:51 | 45.84792 | 9.56452 | 18019 ft | 303 kts | 300° |
| 2026-05-05 21:51 | 45.85945 | 9.53962 | 18003 ft | 302 kts | 293° |
| 2026-05-05 21:51 | 45.86655 | 9.51164 | 17999 ft | 295 kts | 274° |
| 2026-05-05 21:51 | 45.86594 | 9.48269 | 17986 ft | 286 kts | 255° |
| 2026-05-05 21:52 | 45.84983 | 9.43139 | 17982 ft | 283 kts | 229° |
| 2026-05-05 21:52 | 45.83480 | 9.41377 | 17981 ft | 282 kts | 210° |
| 2026-05-05 21:52 | 45.81661 | 9.40328 | 17985 ft | 283 kts | 199° |
| 2026-05-05 21:53 | 45.79720 | 9.39857 | 17971 ft | 289 kts | 185° |
| 2026-05-05 21:53 | 45.77694 | 9.40351 | 17967 ft | 299 kts | 164° |
| 2026-05-05 21:53 | 45.75882 | 9.41806 | 17992 ft | 306 kts | 148° |
| 2026-05-05 21:53 | 45.74320 | 9.43909 | 17988 ft | 313 kts | 136° |
| 2026-05-05 21:54 | 45.72987 | 9.46369 | 17965 ft | 316 kts | 132° |
| 2026-05-05 21:54 | 45.71698 | 9.48941 | 17973 ft | 317 kts | 131° |
| 2026-05-05 21:54 | 45.70417 | 9.51504 | 17985 ft | 316 kts | 132° |
| 2026-05-05 21:54 | 45.69133 | 9.54029 | 17979 ft | 316 kts | 132° |
| 2026-05-05 21:55 | 45.67846 | 9.56561 | 17978 ft | 317 kts | 130° |
| 2026-05-05 21:55 | 45.66779 | 9.59372 | 17973 ft | 324 kts | 115° |
| 2026-05-05 21:55 | 45.66438 | 9.62569 | 17974 ft | 337 kts | 90° |
| 2026-05-05 21:55 | 45.67024 | 9.65805 | 17973 ft | 345 kts | 66° |
| 2026-05-05 21:56 | 45.68389 | 9.68637 | 17977 ft | 348 kts | 48° |
| 2026-05-05 21:56 | 45.70229 | 9.70854 | 17973 ft | 345 kts | 28° |
| 2026-05-05 21:56 | 45.72483 | 9.71944 | 17976 ft | 340 kts | 2° |
| 2026-05-05 21:56 | 45.74794 | 9.71661 | 17975 ft | 329 kts | 338° |
| 2026-05-05 21:57 | 45.76850 | 9.70392 | 17975 ft | 321 kts | 324° |
| 2026-05-05 21:57 | 45.78592 | 9.68530 | 17964 ft | 312 kts | 308° |
| 2026-05-05 21:57 | 45.79960 | 9.66149 | 17993 ft | 308 kts | 301° |
| 2026-05-05 21:57 | 45.81204 | 9.63620 | 17974 ft | 307 kts | 299° |
| 2026-05-05 21:58 | 45.82408 | 9.61141 | 17981 ft | 306 kts | 300° |
| 2026-05-05 21:58 | 45.83650 | 9.58646 | 17985 ft | 307 kts | 300° |
| 2026-05-05 21:58 | 45.84919 | 9.56163 | 17992 ft | 308 kts | 301° |
| 2026-05-05 21:58 | 45.86079 | 9.53628 | 17970 ft | 299 kts | 292° |
| 2026-05-05 21:59 | 45.86667 | 9.50890 | 17555 ft | 288 kts | 268° |
| 2026-05-05 21:59 | 45.86299 | 9.48140 | 17050 ft | 282 kts | 244° |
| 2026-05-05 21:59 | 45.85247 | 9.45826 | 16661 ft | 279 kts | 229° |
| 2026-05-05 21:59 | 45.83929 | 9.43758 | 16250 ft | 278 kts | 227° |
| 2026-05-05 22:00 | 45.82641 | 9.41725 | 15844 ft | 277 kts | 228° |
| 2026-05-05 22:00 | 45.81351 | 9.39657 | 15416 ft | 278 kts | 228° |
| 2026-05-05 22:00 | 45.80076 | 9.37611 | 15036 ft | 276 kts | 228° |
| 2026-05-05 22:00 | 45.78796 | 9.35572 | 14618 ft | 276 kts | 228° |
| 2026-05-05 22:01 | 45.77503 | 9.33527 | 14256 ft | 274 kts | 227° |
| 2026-05-05 22:01 | 45.76230 | 9.31516 | 13920 ft | 273 kts | 227° |
| 2026-05-05 22:01 | 45.74972 | 9.29523 | 13540 ft | 272 kts | 227° |
| 2026-05-05 22:01 | 45.73709 | 9.27528 | 13160 ft | 271 kts | 227° |
| 2026-05-05 22:02 | 45.72448 | 9.25536 | 12986 ft | 266 kts | 227° |
| 2026-05-05 22:02 | 45.71205 | 9.23571 | 12973 ft | 271 kts | 227° |
| 2026-05-05 22:02 | 45.69936 | 9.21571 | 12987 ft | 272 kts | 227° |
| 2026-05-05 22:02 | 45.68658 | 9.19552 | 12974 ft | 270 kts | 227° |
| 2026-05-05 22:03 | 45.67430 | 9.17611 | 12728 ft | 267 kts | 227° |
| 2026-05-05 22:03 | 45.66159 | 9.15608 | 12258 ft | 270 kts | 227° |
| 2026-05-05 22:03 | 45.64899 | 9.13625 | 11915 ft | 268 kts | 227° |
| 2026-05-05 22:03 | 45.63658 | 9.11674 | 11549 ft | 267 kts | 226° |
| 2026-05-05 22:04 | 45.62408 | 9.09711 | 11169 ft | 267 kts | 226° |
| 2026-05-05 22:04 | 45.61158 | 9.07750 | 10794 ft | 267 kts | 226° |
| 2026-05-05 22:04 | 45.59914 | 9.05799 | 10423 ft | 267 kts | 226° |
| 2026-05-05 22:04 | 45.58655 | 9.03825 | 10037 ft | 265 kts | 226° |
| 2026-05-05 22:05 | 45.57423 | 9.01897 | 9562 ft | 264 kts | 226° |
| 2026-05-05 22:05 | 45.56195 | 8.99974 | 9111 ft | 262 kts | 226° |
| 2026-05-05 22:05 | 45.55001 | 8.98105 | 8906 ft | 250 kts | 226° |
| 2026-05-05 22:05 | 45.53838 | 8.96287 | 8541 ft | 247 kts | 226° |
| 2026-05-05 22:06 | 45.52676 | 8.94474 | 8027 ft | 250 kts | 226° |
| 2026-05-05 22:06 | 45.51465 | 8.92730 | 7600 ft | 247 kts | 218° |
| 2026-05-05 22:06 | 45.49977 | 8.91575 | 7162 ft | 245 kts | 194° |
| 2026-05-05 22:06 | 45.48293 | 8.91397 | 6692 ft | 245 kts | 174° |
| 2026-05-05 22:07 | 45.46630 | 8.91779 | 6383 ft | 238 kts | 169° |
| 2026-05-05 22:07 | 45.45038 | 8.92222 | 6158 ft | 230 kts | 169° |
| 2026-05-05 22:07 | 45.43463 | 8.92659 | 5704 ft | 232 kts | 168° |
| 2026-05-05 22:07 | 45.41875 | 8.93098 | 5328 ft | 231 kts | 169° |
| 2026-05-05 22:08 | 45.40309 | 8.93518 | 4966 ft | 229 kts | 172° |
| 2026-05-05 22:08 | 45.38727 | 8.93374 | 4589 ft | 230 kts | 200° |
| 2026-05-05 22:08 | 45.37448 | 8.92105 | 4214 ft | 230 kts | 231° |
| 2026-05-05 22:08 | 45.36834 | 8.90014 | 3995 ft | 231 kts | 259° |
| 2026-05-05 22:09 | 45.36649 | 8.87740 | 3996 ft | 236 kts | 263° |
| 2026-05-05 22:09 | 45.36509 | 8.85415 | 4002 ft | 236 kts | 267° |
| 2026-05-05 22:09 | 45.36782 | 8.83127 | 3983 ft | 237 kts | 295° |
| 2026-05-05 22:09 | 45.37811 | 8.81310 | 3998 ft | 238 kts | 321° |
| 2026-05-05 22:10 | 45.39192 | 8.79984 | 4002 ft | 240 kts | 334° |
| 2026-05-05 22:10 | 45.40785 | 8.79292 | 4001 ft | 237 kts | 352° |
| 2026-05-05 22:10 | 45.42400 | 8.78992 | 3995 ft | 237 kts | 352° |
| 2026-05-05 22:10 | 45.43986 | 8.78600 | 3989 ft | 223 kts | 349° |
| 2026-05-05 22:11 | 45.45459 | 8.78177 | 3997 ft | 206 kts | 349° |
| 2026-05-05 22:11 | 45.46802 | 8.77799 | 3992 ft | 193 kts | 350° |
| 2026-05-05 22:11 | 45.48125 | 8.77436 | 3982 ft | 194 kts | 350° |
| 2026-05-05 22:11 | 45.49450 | 8.77073 | 3994 ft | 194 kts | 350° |
| 2026-05-05 22:12 | 45.50827 | 8.76697 | 3348 ft | 217 kts | 350° |
| 2026-05-05 22:12 | 45.52254 | 8.76305 | 3390 ft | 192 kts | 350° |
| 2026-05-05 22:12 | 45.53526 | 8.75955 | 3840 ft | 186 kts | 350° |
| 2026-05-05 22:12 | 45.54825 | 8.75600 | 4063 ft | 193 kts | 350° |
| 2026-05-05 22:13 | 45.56169 | 8.75231 | 4073 ft | 199 kts | 350° |
| 2026-05-05 22:13 | 45.57514 | 8.74867 | 3714 ft | 200 kts | 351° |